sensor_id;sensor_type;location;lat;lon;timestamp;temperature;humidity
21115;DHT22;10715;48.546;9.896;2023-03-02T00:01:57;0.80;99.90
21115;DHT22;10715;48.546;9.896;2023-03-02T00:04:27;0.80;99.90
21115;DHT22;10715;48.546;9.896;2023-03-02T00:06:58;0.80;99.90
21115;DHT22;10715;48.546;9.896;2023-03-02T00:09:26;0.80;99.90
21115;DHT22;10715;48.546;9.896;2023-03-02T00:11:52;0.80;99.90
21115;DHT22;10715;48.546;9.896;2023-03-02T00:14:17;0.70;99.90
21115;DHT22;10715;48.546;9.896;2023-03-02T00:16:43;0.70;99.90
21115;DHT22;10715;48.546;9.896;2023-03-02T00:19:09;0.70;99.90
21115;DHT22;10715;48.546;9.896;2023-03-02T00:21:35;0.70;99.90
21115;DHT22;10715;48.546;9.896;2023-03-02T00:24:00;0.70;99.90
21115;DHT22;10715;48.546;9.896;2023-03-02T00:26:26;0.60;99.90
21115;DHT22;10715;48.546;9.896;2023-03-02T00:28:52;0.60;99.90
21115;DHT22;10715;48.546;9.896;2023-03-02T00:31:17;0.60;99.90
21115;DHT22;10715;48.546;9.896;2023-03-02T00:33:43;0.60;99.90
21115;DHT22;10715;48.546;9.896;2023-03-02T00:36:16;0.60;99.90
21115;DHT22;10715;48.546;9.896;2023-03-02T00:38:43;0.60;99.90
21115;DHT22;10715;48.546;9.896;2023-03-02T00:41:13;0.60;99.90
21115;DHT22;10715;48.546;9.896;2023-03-02T00:43:39;0.60;99.90
21115;DHT22;10715;48.546;9.896;2023-03-02T00:46:35;0.50;99.90
21115;DHT22;10715;48.546;9.896;2023-03-02T00:49:00;0.50;99.90
21115;DHT22;10715;48.546;9.896;2023-03-02T00:51:26;0.50;99.90
21115;DHT22;10715;48.546;9.896;2023-03-02T00:53:52;0.50;99.90
21115;DHT22;10715;48.546;9.896;2023-03-02T00:56:17;0.50;99.90
21115;DHT22;10715;48.546;9.896;2023-03-02T00:58:43;0.40;99.90
21115;DHT22;10715;48.546;9.896;2023-03-02T01:01:11;0.50;99.90
21115;DHT22;10715;48.546;9.896;2023-03-02T01:03:37;0.40;99.90
21115;DHT22;10715;48.546;9.896;2023-03-02T01:06:04;0.40;99.90
21115;DHT22;10715;48.546;9.896;2023-03-02T01:08:30;0.40;99.90
21115;DHT22;10715;48.546;9.896;2023-03-02T01:10:56;0.40;99.90
21115;DHT22;10715;48.546;9.896;2023-03-02T01:13:25;0.40;99.90
21115;DHT22;10715;48.546;9.896;2023-03-02T01:16:02;0.40;99.90
21115;DHT22;10715;48.546;9.896;2023-03-02T01:18:27;0.40;99.90
21115;DHT22;10715;48.546;9.896;2023-03-02T01:23:30;0.40;99.90
21115;DHT22;10715;48.546;9.896;2023-03-02T01:25:55;0.40;99.90
21115;DHT22;10715;48.546;9.896;2023-03-02T01:28:21;0.40;99.90
21115;DHT22;10715;48.546;9.896;2023-03-02T01:30:47;0.40;99.90
21115;DHT22;10715;48.546;9.896;2023-03-02T01:33:13;0.40;99.90
21115;DHT22;10715;48.546;9.896;2023-03-02T01:35:39;0.30;99.90
21115;DHT22;10715;48.546;9.896;2023-03-02T01:38:04;0.30;99.90
21115;DHT22;10715;48.546;9.896;2023-03-02T01:40:30;0.30;99.90
21115;DHT22;10715;48.546;9.896;2023-03-02T01:42:57;0.20;99.90
21115;DHT22;10715;48.546;9.896;2023-03-02T01:45:48;0.20;99.90
21115;DHT22;10715;48.546;9.896;2023-03-02T01:48:20;0.20;99.90
21115;DHT22;10715;48.546;9.896;2023-03-02T01:50:46;0.10;99.90
21115;DHT22;10715;48.546;9.896;2023-03-02T01:53:13;0.10;99.90
21115;DHT22;10715;48.546;9.896;2023-03-02T01:55:40;0.10;99.90
21115;DHT22;10715;48.546;9.896;2023-03-02T01:58:08;0.10;99.90
21115;DHT22;10715;48.546;9.896;2023-03-02T02:00:37;0.10;99.90
21115;DHT22;10715;48.546;9.896;2023-03-02T02:03:24;0.10;99.90
21115;DHT22;10715;48.546;9.896;2023-03-02T02:06:17;0.10;99.90
21115;DHT22;10715;48.546;9.896;2023-03-02T02:08:47;0.10;99.90
21115;DHT22;10715;48.546;9.896;2023-03-02T02:11:14;0.10;99.90
21115;DHT22;10715;48.546;9.896;2023-03-02T02:13:40;0.10;99.90
21115;DHT22;10715;48.546;9.896;2023-03-02T02:16:06;0.00;99.90
21115;DHT22;10715;48.546;9.896;2023-03-02T02:18:35;0.10;99.90
21115;DHT22;10715;48.546;9.896;2023-03-02T02:21:02;0.10;99.90
21115;DHT22;10715;48.546;9.896;2023-03-02T02:26:43;0.10;99.90
21115;DHT22;10715;48.546;9.896;2023-03-02T02:29:14;0.10;99.90
21115;DHT22;10715;48.546;9.896;2023-03-02T02:31:50;0.10;99.90
21115;DHT22;10715;48.546;9.896;2023-03-02T02:34:33;0.20;99.90
21115;DHT22;10715;48.546;9.896;2023-03-02T02:37:06;0.20;99.90
21115;DHT22;10715;48.546;9.896;2023-03-02T02:39:35;0.20;99.90
21115;DHT22;10715;48.546;9.896;2023-03-02T02:42:06;0.20;99.90
21115;DHT22;10715;48.546;9.896;2023-03-02T02:44:34;0.20;99.90
21115;DHT22;10715;48.546;9.896;2023-03-02T02:47:00;0.20;99.90
21115;DHT22;10715;48.546;9.896;2023-03-02T02:49:33;0.20;99.90
21115;DHT22;10715;48.546;9.896;2023-03-02T02:52:02;0.20;99.90
21115;DHT22;10715;48.546;9.896;2023-03-02T02:54:29;0.20;99.90
21115;DHT22;10715;48.546;9.896;2023-03-02T02:56:56;0.20;99.90
21115;DHT22;10715;48.546;9.896;2023-03-02T02:59:27;0.20;99.90
21115;DHT22;10715;48.546;9.896;2023-03-02T03:01:54;0.20;99.90
21115;DHT22;10715;48.546;9.896;2023-03-02T03:04:26;0.10;99.90
21115;DHT22;10715;48.546;9.896;2023-03-02T03:09:23;0.10;99.90
21115;DHT22;10715;48.546;9.896;2023-03-02T03:11:57;0.10;99.90
21115;DHT22;10715;48.546;9.896;2023-03-02T03:14:28;0.10;99.90
21115;DHT22;10715;48.546;9.896;2023-03-02T03:16:55;0.10;99.90
21115;DHT22;10715;48.546;9.896;2023-03-02T03:19:31;0.10;99.90
21115;DHT22;10715;48.546;9.896;2023-03-02T03:21:59;0.10;99.90
21115;DHT22;10715;48.546;9.896;2023-03-02T03:24:27;0.10;99.90
21115;DHT22;10715;48.546;9.896;2023-03-02T03:26:54;0.10;99.90
21115;DHT22;10715;48.546;9.896;2023-03-02T03:29:22;0.00;99.90
21115;DHT22;10715;48.546;9.896;2023-03-02T03:31:53;0.00;99.90
21115;DHT22;10715;48.546;9.896;2023-03-02T03:34:19;0.00;99.90
21115;DHT22;10715;48.546;9.896;2023-03-02T03:36:45;0.00;99.90
21115;DHT22;10715;48.546;9.896;2023-03-02T03:39:13;0.00;99.90
21115;DHT22;10715;48.546;9.896;2023-03-02T03:41:39;0.10;99.90
21115;DHT22;10715;48.546;9.896;2023-03-02T03:44:05;0.00;99.90
21115;DHT22;10715;48.546;9.896;2023-03-02T03:46:32;0.00;99.90
21115;DHT22;10715;48.546;9.896;2023-03-02T03:48:57;0.00;99.90
21115;DHT22;10715;48.546;9.896;2023-03-02T03:51:23;0.00;99.90
21115;DHT22;10715;48.546;9.896;2023-03-02T03:53:49;0.00;99.90
21115;DHT22;10715;48.546;9.896;2023-03-02T03:56:26;0.00;99.90
21115;DHT22;10715;48.546;9.896;2023-03-02T03:58:51;0.00;99.90
21115;DHT22;10715;48.546;9.896;2023-03-02T04:01:52;0.00;99.90
21115;DHT22;10715;48.546;9.896;2023-03-02T04:04:23;0.00;99.90
21115;DHT22;10715;48.546;9.896;2023-03-02T04:06:50;0.00;99.90
21115;DHT22;10715;48.546;9.896;2023-03-02T04:09:16;0.00;99.90
21115;DHT22;10715;48.546;9.896;2023-03-02T04:11:46;0.00;99.90
21115;DHT22;10715;48.546;9.896;2023-03-02T04:14:12;0.00;99.90
21115;DHT22;10715;48.546;9.896;2023-03-02T04:16:39;0.00;99.90
21115;DHT22;10715;48.546;9.896;2023-03-02T04:19:06;0.00;99.90
21115;DHT22;10715;48.546;9.896;2023-03-02T04:21:36;0.00;99.90
21115;DHT22;10715;48.546;9.896;2023-03-02T04:24:01;0.00;99.90
21115;DHT22;10715;48.546;9.896;2023-03-02T04:26:27;0.00;99.90
21115;DHT22;10715;48.546;9.896;2023-03-02T04:28:52;0.00;99.90
21115;DHT22;10715;48.546;9.896;2023-03-02T04:31:18;0.00;99.90
21115;DHT22;10715;48.546;9.896;2023-03-02T04:33:44;0.00;99.90
21115;DHT22;10715;48.546;9.896;2023-03-02T04:36:10;0.00;99.90
21115;DHT22;10715;48.546;9.896;2023-03-02T04:38:35;0.00;99.90
21115;DHT22;10715;48.546;9.896;2023-03-02T04:41:01;0.00;99.90
21115;DHT22;10715;48.546;9.896;2023-03-02T04:43:27;0.00;99.90
21115;DHT22;10715;48.546;9.896;2023-03-02T04:45:53;0.00;99.90
21115;DHT22;10715;48.546;9.896;2023-03-02T04:48:20;0.00;99.90
21115;DHT22;10715;48.546;9.896;2023-03-02T04:50:46;0.00;99.90
21115;DHT22;10715;48.546;9.896;2023-03-02T04:53:11;0.00;99.90
21115;DHT22;10715;48.546;9.896;2023-03-02T04:55:38;0.00;99.90
21115;DHT22;10715;48.546;9.896;2023-03-02T04:58:04;0.00;99.90
21115;DHT22;10715;48.546;9.896;2023-03-02T05:00:30;0.00;99.90
21115;DHT22;10715;48.546;9.896;2023-03-02T05:02:59;0.00;99.90
21115;DHT22;10715;48.546;9.896;2023-03-02T05:05:25;0.00;99.90
21115;DHT22;10715;48.546;9.896;2023-03-02T05:07:52;0.00;99.90
21115;DHT22;10715;48.546;9.896;2023-03-02T05:10:18;0.00;99.90
21115;DHT22;10715;48.546;9.896;2023-03-02T05:12:44;0.00;99.90
21115;DHT22;10715;48.546;9.896;2023-03-02T05:15:27;0.00;99.90
21115;DHT22;10715;48.546;9.896;2023-03-02T05:17:53;0.00;99.90
21115;DHT22;10715;48.546;9.896;2023-03-02T05:20:18;0.00;99.90
21115;DHT22;10715;48.546;9.896;2023-03-02T05:22:45;0.00;99.90
21115;DHT22;10715;48.546;9.896;2023-03-02T05:25:11;0.00;99.90
21115;DHT22;10715;48.546;9.896;2023-03-02T05:27:36;0.00;99.90
21115;DHT22;10715;48.546;9.896;2023-03-02T05:30:04;0.00;99.90
21115;DHT22;10715;48.546;9.896;2023-03-02T05:32:30;0.00;99.90
21115;DHT22;10715;48.546;9.896;2023-03-02T05:34:56;0.10;99.90
21115;DHT22;10715;48.546;9.896;2023-03-02T05:37:22;0.00;99.90
21115;DHT22;10715;48.546;9.896;2023-03-02T05:39:48;0.10;99.90
21115;DHT22;10715;48.546;9.896;2023-03-02T05:42:13;0.10;99.90
21115;DHT22;10715;48.546;9.896;2023-03-02T05:44:39;0.10;99.90
21115;DHT22;10715;48.546;9.896;2023-03-02T05:47:05;0.10;99.90
21115;DHT22;10715;48.546;9.896;2023-03-02T05:49:33;0.10;99.90
21115;DHT22;10715;48.546;9.896;2023-03-02T05:51:58;0.10;99.90
21115;DHT22;10715;48.546;9.896;2023-03-02T05:54:24;0.10;99.90
21115;DHT22;10715;48.546;9.896;2023-03-02T05:56:50;0.10;99.90
21115;DHT22;10715;48.546;9.896;2023-03-02T05:59:15;0.10;99.90
21115;DHT22;10715;48.546;9.896;2023-03-02T06:01:41;0.10;99.90
21115;DHT22;10715;48.546;9.896;2023-03-02T06:04:07;0.10;99.90
21115;DHT22;10715;48.546;9.896;2023-03-02T06:06:33;0.10;99.90
21115;DHT22;10715;48.546;9.896;2023-03-02T06:09:01;0.10;99.90
21115;DHT22;10715;48.546;9.896;2023-03-02T06:11:27;0.10;99.90
21115;DHT22;10715;48.546;9.896;2023-03-02T06:13:54;0.10;99.90
21115;DHT22;10715;48.546;9.896;2023-03-02T06:16:20;0.20;99.90
21115;DHT22;10715;48.546;9.896;2023-03-02T06:18:45;0.20;99.90
21115;DHT22;10715;48.546;9.896;2023-03-02T06:21:11;0.20;99.90
21115;DHT22;10715;48.546;9.896;2023-03-02T06:23:37;0.20;99.90
21115;DHT22;10715;48.546;9.896;2023-03-02T06:26:10;0.20;99.90
21115;DHT22;10715;48.546;9.896;2023-03-02T06:28:37;0.20;99.90
21115;DHT22;10715;48.546;9.896;2023-03-02T06:31:02;0.20;99.90
21115;DHT22;10715;48.546;9.896;2023-03-02T06:33:28;0.20;99.90
21115;DHT22;10715;48.546;9.896;2023-03-02T06:35:55;0.20;99.90
21115;DHT22;10715;48.546;9.896;2023-03-02T06:38:21;0.20;99.90
21115;DHT22;10715;48.546;9.896;2023-03-02T06:40:47;0.20;99.90
21115;DHT22;10715;48.546;9.896;2023-03-02T06:43:13;0.20;99.90
21115;DHT22;10715;48.546;9.896;2023-03-02T06:45:39;0.30;99.90
21115;DHT22;10715;48.546;9.896;2023-03-02T06:48:05;0.30;99.90
21115;DHT22;10715;48.546;9.896;2023-03-02T06:50:32;0.30;99.90
21115;DHT22;10715;48.546;9.896;2023-03-02T06:52:58;0.30;99.90
21115;DHT22;10715;48.546;9.896;2023-03-02T06:55:24;0.30;99.90
21115;DHT22;10715;48.546;9.896;2023-03-02T06:57:50;0.30;99.90
21115;DHT22;10715;48.546;9.896;2023-03-02T07:00:17;0.30;99.90
21115;DHT22;10715;48.546;9.896;2023-03-02T07:02:49;0.30;99.90
21115;DHT22;10715;48.546;9.896;2023-03-02T07:05:16;0.30;99.90
21115;DHT22;10715;48.546;9.896;2023-03-02T07:07:42;0.40;99.90
21115;DHT22;10715;48.546;9.896;2023-03-02T07:10:08;0.40;99.90
21115;DHT22;10715;48.546;9.896;2023-03-02T07:12:36;0.40;99.90
21115;DHT22;10715;48.546;9.896;2023-03-02T07:15:03;0.40;99.90
21115;DHT22;10715;48.546;9.896;2023-03-02T07:17:32;0.40;99.90
21115;DHT22;10715;48.546;9.896;2023-03-02T07:19:58;0.40;99.90
21115;DHT22;10715;48.546;9.896;2023-03-02T07:22:24;0.40;99.90
21115;DHT22;10715;48.546;9.896;2023-03-02T07:24:49;0.40;99.90
21115;DHT22;10715;48.546;9.896;2023-03-02T07:27:15;0.50;99.90
21115;DHT22;10715;48.546;9.896;2023-03-02T07:29:41;0.50;99.90
21115;DHT22;10715;48.546;9.896;2023-03-02T07:32:06;0.50;99.90
21115;DHT22;10715;48.546;9.896;2023-03-02T07:34:32;0.50;99.90
21115;DHT22;10715;48.546;9.896;2023-03-02T07:36:58;0.50;99.90
21115;DHT22;10715;48.546;9.896;2023-03-02T07:39:23;0.50;99.90
21115;DHT22;10715;48.546;9.896;2023-03-02T07:41:49;0.60;99.90
21115;DHT22;10715;48.546;9.896;2023-03-02T07:44:15;0.60;99.90
21115;DHT22;10715;48.546;9.896;2023-03-02T07:46:41;0.60;99.90
21115;DHT22;10715;48.546;9.896;2023-03-02T07:49:06;0.60;99.90
21115;DHT22;10715;48.546;9.896;2023-03-02T07:51:32;0.60;99.90
21115;DHT22;10715;48.546;9.896;2023-03-02T07:53:58;0.70;99.90
21115;DHT22;10715;48.546;9.896;2023-03-02T07:56:24;0.70;99.90
21115;DHT22;10715;48.546;9.896;2023-03-02T07:58:49;0.70;99.90
21115;DHT22;10715;48.546;9.896;2023-03-02T08:01:15;0.80;99.90
21115;DHT22;10715;48.546;9.896;2023-03-02T08:03:40;0.80;99.90
21115;DHT22;10715;48.546;9.896;2023-03-02T08:06:11;0.80;99.90
21115;DHT22;10715;48.546;9.896;2023-03-02T08:08:37;0.80;99.90
21115;DHT22;10715;48.546;9.896;2023-03-02T08:11:11;0.90;99.90
21115;DHT22;10715;48.546;9.896;2023-03-02T08:13:37;1.00;99.90
21115;DHT22;10715;48.546;9.896;2023-03-02T08:16:04;1.00;99.90
21115;DHT22;10715;48.546;9.896;2023-03-02T08:18:31;1.00;99.90
21115;DHT22;10715;48.546;9.896;2023-03-02T08:20:57;1.00;99.90
21115;DHT22;10715;48.546;9.896;2023-03-02T08:23:24;1.10;99.90
21115;DHT22;10715;48.546;9.896;2023-03-02T08:25:51;1.10;99.90
21115;DHT22;10715;48.546;9.896;2023-03-02T08:28:18;1.10;99.90
21115;DHT22;10715;48.546;9.896;2023-03-02T08:30:44;1.20;99.90
21115;DHT22;10715;48.546;9.896;2023-03-02T08:33:09;1.20;99.90
21115;DHT22;10715;48.546;9.896;2023-03-02T08:35:35;1.30;99.90
21115;DHT22;10715;48.546;9.896;2023-03-02T08:38:01;1.30;99.90
21115;DHT22;10715;48.546;9.896;2023-03-02T08:40:27;1.40;99.90
21115;DHT22;10715;48.546;9.896;2023-03-02T08:42:52;1.40;99.90
21115;DHT22;10715;48.546;9.896;2023-03-02T08:45:24;1.50;99.90
21115;DHT22;10715;48.546;9.896;2023-03-02T08:47:52;1.50;99.90
21115;DHT22;10715;48.546;9.896;2023-03-02T08:50:19;1.60;99.90
21115;DHT22;10715;48.546;9.896;2023-03-02T08:52:45;1.60;99.90
21115;DHT22;10715;48.546;9.896;2023-03-02T08:55:11;1.70;99.90
21115;DHT22;10715;48.546;9.896;2023-03-02T08:57:36;1.70;99.90
21115;DHT22;10715;48.546;9.896;2023-03-02T09:00:03;1.70;99.90
21115;DHT22;10715;48.546;9.896;2023-03-02T09:02:33;1.80;99.90
21115;DHT22;10715;48.546;9.896;2023-03-02T09:04:58;1.80;99.90
21115;DHT22;10715;48.546;9.896;2023-03-02T09:07:24;1.90;99.90
21115;DHT22;10715;48.546;9.896;2023-03-02T09:09:50;2.00;99.90
21115;DHT22;10715;48.546;9.896;2023-03-02T09:12:15;2.00;99.90
21115;DHT22;10715;48.546;9.896;2023-03-02T09:14:41;2.10;99.90
21115;DHT22;10715;48.546;9.896;2023-03-02T09:17:07;2.10;99.90
21115;DHT22;10715;48.546;9.896;2023-03-02T09:19:33;2.20;99.90
21115;DHT22;10715;48.546;9.896;2023-03-02T09:22:09;2.20;99.90
21115;DHT22;10715;48.546;9.896;2023-03-02T09:24:35;2.30;99.90
21115;DHT22;10715;48.546;9.896;2023-03-02T09:27:02;2.30;99.90
21115;DHT22;10715;48.546;9.896;2023-03-02T09:29:27;2.30;99.90
21115;DHT22;10715;48.546;9.896;2023-03-02T09:31:53;2.40;99.90
21115;DHT22;10715;48.546;9.896;2023-03-02T09:34:20;2.40;99.90
21115;DHT22;10715;48.546;9.896;2023-03-02T09:36:46;2.40;99.90
21115;DHT22;10715;48.546;9.896;2023-03-02T09:39:12;2.40;99.90
21115;DHT22;10715;48.546;9.896;2023-03-02T09:47:35;2.50;99.90
21115;DHT22;10715;48.546;9.896;2023-03-02T09:55:35;2.60;99.90
21115;DHT22;10715;48.546;9.896;2023-03-02T09:58:07;2.70;99.90
21115;DHT22;10715;48.546;9.896;2023-03-02T10:00:39;2.70;99.90
21115;DHT22;10715;48.546;9.896;2023-03-02T10:03:16;2.80;99.90
21115;DHT22;10715;48.546;9.896;2023-03-02T10:05:50;2.90;99.90
21115;DHT22;10715;48.546;9.896;2023-03-02T10:08:30;3.00;99.90
21115;DHT22;10715;48.546;9.896;2023-03-02T10:11:24;3.20;99.90
21115;DHT22;10715;48.546;9.896;2023-03-02T10:14:11;3.30;99.90
21115;DHT22;10715;48.546;9.896;2023-03-02T10:16:51;3.40;99.90
21115;DHT22;10715;48.546;9.896;2023-03-02T10:19:28;3.50;99.90
21115;DHT22;10715;48.546;9.896;2023-03-02T10:22:12;3.70;99.90
21115;DHT22;10715;48.546;9.896;2023-03-02T10:27:31;3.90;99.90
21115;DHT22;10715;48.546;9.896;2023-03-02T10:30:34;4.10;99.90
21115;DHT22;10715;48.546;9.896;2023-03-02T10:33:08;4.30;99.90
21115;DHT22;10715;48.546;9.896;2023-03-02T10:35:37;4.40;99.90
21115;DHT22;10715;48.546;9.896;2023-03-02T10:38:16;4.50;99.90
21115;DHT22;10715;48.546;9.896;2023-03-02T10:40:45;4.60;99.90
21115;DHT22;10715;48.546;9.896;2023-03-02T10:43:23;4.70;99.90
21115;DHT22;10715;48.546;9.896;2023-03-02T10:46:01;4.70;99.90
21115;DHT22;10715;48.546;9.896;2023-03-02T10:48:27;4.80;99.90
21115;DHT22;10715;48.546;9.896;2023-03-02T10:50:54;4.80;99.90
21115;DHT22;10715;48.546;9.896;2023-03-02T10:53:20;4.80;99.90
21115;DHT22;10715;48.546;9.896;2023-03-02T10:55:48;4.80;99.90
21115;DHT22;10715;48.546;9.896;2023-03-02T11:03:22;4.80;99.90
21115;DHT22;10715;48.546;9.896;2023-03-02T11:05:48;4.80;99.90
21115;DHT22;10715;48.546;9.896;2023-03-02T11:08:20;4.80;99.90
21115;DHT22;10715;48.546;9.896;2023-03-02T11:10:57;4.80;99.90
21115;DHT22;10715;48.546;9.896;2023-03-02T11:13:28;4.80;99.90
21115;DHT22;10715;48.546;9.896;2023-03-02T11:16:02;4.80;99.90
21115;DHT22;10715;48.546;9.896;2023-03-02T11:18:45;4.90;99.90
21115;DHT22;10715;48.546;9.896;2023-03-02T11:21:21;5.00;99.90
21115;DHT22;10715;48.546;9.896;2023-03-02T11:26:58;5.10;99.90
21115;DHT22;10715;48.546;9.896;2023-03-02T11:29:35;5.10;99.90
21115;DHT22;10715;48.546;9.896;2023-03-02T11:34:41;5.20;99.90
21115;DHT22;10715;48.546;9.896;2023-03-02T11:44:49;5.40;99.90
21115;DHT22;10715;48.546;9.896;2023-03-02T11:47:16;5.50;99.90
21115;DHT22;10715;48.546;9.896;2023-03-02T11:49:52;5.60;99.90
21115;DHT22;10715;48.546;9.896;2023-03-02T11:52:26;5.60;99.90
21115;DHT22;10715;48.546;9.896;2023-03-02T11:54:59;5.70;99.90
21115;DHT22;10715;48.546;9.896;2023-03-02T11:57:34;5.70;99.90
21115;DHT22;10715;48.546;9.896;2023-03-02T12:00:21;5.70;99.90
21115;DHT22;10715;48.546;9.896;2023-03-02T12:02:58;5.80;99.90
21115;DHT22;10715;48.546;9.896;2023-03-02T12:05:27;5.90;99.90
21115;DHT22;10715;48.546;9.896;2023-03-02T12:08:02;5.90;99.90
21115;DHT22;10715;48.546;9.896;2023-03-02T12:10:38;6.00;99.90
21115;DHT22;10715;48.546;9.896;2023-03-02T12:13:26;6.10;99.90
21115;DHT22;10715;48.546;9.896;2023-03-02T12:15:52;6.10;99.90
21115;DHT22;10715;48.546;9.896;2023-03-02T12:23:28;6.20;99.90
21115;DHT22;10715;48.546;9.896;2023-03-02T12:31:20;6.30;99.90
21115;DHT22;10715;48.546;9.896;2023-03-02T12:33:48;6.40;99.90
21115;DHT22;10715;48.546;9.896;2023-03-02T12:36:40;6.40;99.90
21115;DHT22;10715;48.546;9.896;2023-03-02T12:44:45;6.50;99.90
21115;DHT22;10715;48.546;9.896;2023-03-02T12:47:19;6.50;99.90
21115;DHT22;10715;48.546;9.896;2023-03-02T12:49:54;6.60;99.90
21115;DHT22;10715;48.546;9.896;2023-03-02T12:52:27;6.60;99.90
21115;DHT22;10715;48.546;9.896;2023-03-02T12:57:29;6.70;99.90
21115;DHT22;10715;48.546;9.896;2023-03-02T12:59:58;6.70;99.90
21115;DHT22;10715;48.546;9.896;2023-03-02T13:02:29;6.70;99.90
21115;DHT22;10715;48.546;9.896;2023-03-02T13:10:22;6.90;99.90
21115;DHT22;10715;48.546;9.896;2023-03-02T13:12:50;6.90;99.90
21115;DHT22;10715;48.546;9.896;2023-03-02T13:15:16;6.90;99.90
21115;DHT22;10715;48.546;9.896;2023-03-02T13:17:43;7.00;99.90
21115;DHT22;10715;48.546;9.896;2023-03-02T13:20:12;7.00;99.90
21115;DHT22;10715;48.546;9.896;2023-03-02T13:22:39;7.00;99.90
21115;DHT22;10715;48.546;9.896;2023-03-02T13:25:06;7.00;99.90
21115;DHT22;10715;48.546;9.896;2023-03-02T13:27:33;7.00;99.90
21115;DHT22;10715;48.546;9.896;2023-03-02T13:30:26;7.00;99.90
21115;DHT22;10715;48.546;9.896;2023-03-02T13:33:41;7.00;99.90
21115;DHT22;10715;48.546;9.896;2023-03-02T13:35:44;7.10;99.90
21115;DHT22;10715;48.546;9.896;2023-03-02T13:38:19;7.10;99.90
21115;DHT22;10715;48.546;9.896;2023-03-02T13:40:47;7.20;99.90
21115;DHT22;10715;48.546;9.896;2023-03-02T13:43:33;7.20;99.90
21115;DHT22;10715;48.546;9.896;2023-03-02T13:48:57;7.30;99.90
21115;DHT22;10715;48.546;9.896;2023-03-02T13:51:23;7.30;99.90
21115;DHT22;10715;48.546;9.896;2023-03-02T13:53:59;7.40;99.90
21115;DHT22;10715;48.546;9.896;2023-03-02T13:56:37;7.40;99.90
21115;DHT22;10715;48.546;9.896;2023-03-02T13:59:12;7.40;99.90
21115;DHT22;10715;48.546;9.896;2023-03-02T14:01:38;7.40;99.90
21115;DHT22;10715;48.546;9.896;2023-03-02T14:04:09;7.50;99.90
21115;DHT22;10715;48.546;9.896;2023-03-02T14:06:35;7.50;99.90
21115;DHT22;10715;48.546;9.896;2023-03-02T14:09:01;7.50;99.90
21115;DHT22;10715;48.546;9.896;2023-03-02T14:11:50;7.50;99.90
21115;DHT22;10715;48.546;9.896;2023-03-02T14:14:21;7.50;99.90
21115;DHT22;10715;48.546;9.896;2023-03-02T14:16:48;7.50;99.90
21115;DHT22;10715;48.546;9.896;2023-03-02T14:19:14;7.50;99.90
21115;DHT22;10715;48.546;9.896;2023-03-02T14:21:44;7.50;99.90
21115;DHT22;10715;48.546;9.896;2023-03-02T14:24:10;7.50;99.90
21115;DHT22;10715;48.546;9.896;2023-03-02T14:26:41;7.50;99.90
21115;DHT22;10715;48.546;9.896;2023-03-02T14:31:37;7.60;99.90
21115;DHT22;10715;48.546;9.896;2023-03-02T14:34:02;7.60;99.90
21115;DHT22;10715;48.546;9.896;2023-03-02T14:36:31;7.60;99.90
21115;DHT22;10715;48.546;9.896;2023-03-02T14:39:00;7.60;99.90
21115;DHT22;10715;48.546;9.896;2023-03-02T14:41:27;7.60;99.90
21115;DHT22;10715;48.546;9.896;2023-03-02T14:43:53;7.60;99.90
21115;DHT22;10715;48.546;9.896;2023-03-02T14:46:18;7.60;99.90
21115;DHT22;10715;48.546;9.896;2023-03-02T14:48:44;7.60;99.90
21115;DHT22;10715;48.546;9.896;2023-03-02T14:51:23;7.60;99.90
21115;DHT22;10715;48.546;9.896;2023-03-02T14:53:51;7.60;99.90
21115;DHT22;10715;48.546;9.896;2023-03-02T14:56:20;7.70;99.90
21115;DHT22;10715;48.546;9.896;2023-03-02T14:58:48;7.60;99.90
21115;DHT22;10715;48.546;9.896;2023-03-02T15:01:15;7.60;99.90
21115;DHT22;10715;48.546;9.896;2023-03-02T15:03:40;7.60;99.90
21115;DHT22;10715;48.546;9.896;2023-03-02T15:08:44;7.70;99.90
21115;DHT22;10715;48.546;9.896;2023-03-02T15:11:10;7.70;99.90
21115;DHT22;10715;48.546;9.896;2023-03-02T15:13:35;7.70;99.90
21115;DHT22;10715;48.546;9.896;2023-03-02T15:16:01;7.70;99.90
21115;DHT22;10715;48.546;9.896;2023-03-02T15:18:27;7.70;99.90
21115;DHT22;10715;48.546;9.896;2023-03-02T15:20:52;7.70;99.90
21115;DHT22;10715;48.546;9.896;2023-03-02T15:23:18;7.60;99.90
21115;DHT22;10715;48.546;9.896;2023-03-02T15:25:44;7.70;99.90
21115;DHT22;10715;48.546;9.896;2023-03-02T15:28:09;7.70;99.90
21115;DHT22;10715;48.546;9.896;2023-03-02T15:30:35;7.60;99.90
21115;DHT22;10715;48.546;9.896;2023-03-02T15:33:01;7.60;99.90
21115;DHT22;10715;48.546;9.896;2023-03-02T15:35:27;7.60;99.90
21115;DHT22;10715;48.546;9.896;2023-03-02T15:37:53;7.60;99.90
21115;DHT22;10715;48.546;9.896;2023-03-02T15:40:22;7.60;99.90
21115;DHT22;10715;48.546;9.896;2023-03-02T15:42:48;7.60;99.90
21115;DHT22;10715;48.546;9.896;2023-03-02T15:45:14;7.50;99.90
21115;DHT22;10715;48.546;9.896;2023-03-02T15:47:39;7.50;99.90
21115;DHT22;10715;48.546;9.896;2023-03-02T15:50:05;7.50;99.90
21115;DHT22;10715;48.546;9.896;2023-03-02T15:52:31;7.50;99.90
21115;DHT22;10715;48.546;9.896;2023-03-02T15:54:56;7.50;99.90
21115;DHT22;10715;48.546;9.896;2023-03-02T15:57:22;7.50;99.90
21115;DHT22;10715;48.546;9.896;2023-03-02T15:59:48;7.50;99.90
21115;DHT22;10715;48.546;9.896;2023-03-02T16:02:13;7.50;99.90
21115;DHT22;10715;48.546;9.896;2023-03-02T16:04:39;7.40;99.90
21115;DHT22;10715;48.546;9.896;2023-03-02T16:07:05;7.40;99.90
21115;DHT22;10715;48.546;9.896;2023-03-02T16:09:31;7.40;99.90
21115;DHT22;10715;48.546;9.896;2023-03-02T16:11:57;7.30;99.90
21115;DHT22;10715;48.546;9.896;2023-03-02T16:14:22;7.30;99.90
21115;DHT22;10715;48.546;9.896;2023-03-02T16:16:48;7.20;99.90
21115;DHT22;10715;48.546;9.896;2023-03-02T16:19:15;7.20;99.90
21115;DHT22;10715;48.546;9.896;2023-03-02T16:21:42;7.10;99.90
21115;DHT22;10715;48.546;9.896;2023-03-02T16:24:08;7.10;99.90
21115;DHT22;10715;48.546;9.896;2023-03-02T16:26:36;7.00;99.90
21115;DHT22;10715;48.546;9.896;2023-03-02T16:29:03;7.00;99.90
21115;DHT22;10715;48.546;9.896;2023-03-02T16:31:29;6.90;99.90
21115;DHT22;10715;48.546;9.896;2023-03-02T16:33:58;6.90;99.90
21115;DHT22;10715;48.546;9.896;2023-03-02T16:36:24;6.80;99.90
21115;DHT22;10715;48.546;9.896;2023-03-02T16:38:51;6.70;99.90
21115;DHT22;10715;48.546;9.896;2023-03-02T16:41:19;6.70;99.90
21115;DHT22;10715;48.546;9.896;2023-03-02T16:43:51;6.60;99.90
21115;DHT22;10715;48.546;9.896;2023-03-02T16:46:18;6.60;99.90
21115;DHT22;10715;48.546;9.896;2023-03-02T16:48:45;6.50;99.90
21115;DHT22;10715;48.546;9.896;2023-03-02T16:51:11;6.50;99.90
21115;DHT22;10715;48.546;9.896;2023-03-02T16:53:37;6.40;99.90
21115;DHT22;10715;48.546;9.896;2023-03-02T16:56:06;6.40;99.90
21115;DHT22;10715;48.546;9.896;2023-03-02T16:58:31;6.30;99.90
21115;DHT22;10715;48.546;9.896;2023-03-02T17:00:57;6.20;99.90
21115;DHT22;10715;48.546;9.896;2023-03-02T17:03:23;6.20;99.90
21115;DHT22;10715;48.546;9.896;2023-03-02T17:05:49;6.10;99.90
21115;DHT22;10715;48.546;9.896;2023-03-02T17:08:15;6.00;99.90